createdAt,value
2019-03-18T00:00:33.010Z,0.40
2019-03-18T00:01:32.720Z,0.50
2019-03-18T00:02:32.668Z,0.60
2019-03-18T00:03:32.630Z,0.50
2019-03-18T00:04:32.563Z,0.40
2019-03-18T00:05:32.713Z,0.60
2019-03-18T00:06:32.460Z,0.60
2019-03-18T00:07:32.424Z,0.60
2019-03-18T00:08:32.373Z,0.70
2019-03-18T00:09:32.298Z,0.50
2019-03-18T00:10:32.412Z,0.70
2019-03-18T00:11:32.195Z,0.50
2019-03-18T00:12:32.145Z,0.50
2019-03-18T00:13:32.088Z,0.50
2019-03-18T00:14:32.036Z,0.80
2019-03-18T00:15:32.226Z,0.60
2019-03-18T00:16:31.934Z,0.90
2019-03-18T00:17:31.877Z,0.80
2019-03-18T00:18:31.842Z,0.70
2019-03-18T00:19:31.772Z,0.80
2019-03-18T00:20:31.929Z,0.80
2019-03-18T00:21:31.669Z,0.90
2019-03-18T00:22:31.623Z,0.80
2019-03-18T00:23:31.579Z,0.70
2019-03-18T00:24:31.512Z,0.90
2019-03-18T00:25:31.723Z,1.00
2019-03-18T00:26:31.403Z,0.90
2019-03-18T00:27:31.356Z,0.80
2019-03-18T00:28:31.313Z,0.90
2019-03-18T00:29:31.244Z,0.80
2019-03-18T00:30:31.425Z,0.80
2019-03-18T00:31:31.139Z,1.00
2019-03-18T00:32:31.085Z,0.90
2019-03-18T00:33:31.051Z,0.80
2019-03-18T00:34:30.983Z,1.00
2019-03-18T00:35:31.140Z,1.00
2019-03-18T00:36:30.982Z,1.00
2019-03-18T00:37:30.827Z,0.90
2019-03-18T00:38:30.791Z,0.80
2019-03-18T00:39:30.716Z,0.90
2019-03-18T00:40:30.835Z,1.00
2019-03-18T00:41:30.615Z,1.10
2019-03-18T00:42:30.557Z,0.70
2019-03-18T00:43:30.504Z,0.90
2019-03-18T00:44:30.476Z,1.10
2019-03-18T00:45:30.631Z,0.80
2019-03-18T00:46:30.360Z,1.00
2019-03-18T00:47:30.289Z,0.90
2019-03-18T00:48:30.263Z,1.00
2019-03-18T00:49:30.193Z,1.10
2019-03-18T00:50:30.347Z,1.10
2019-03-18T00:51:30.083Z,1.00
2019-03-18T00:52:30.030Z,1.00
2019-03-18T00:53:29.994Z,0.90
2019-03-18T00:54:29.923Z,1.00
2019-03-18T00:55:30.044Z,0.90
2019-03-18T00:56:29.818Z,0.90
2019-03-18T00:57:29.764Z,1.00
2019-03-18T00:58:29.731Z,1.00
2019-03-18T00:59:29.661Z,1.00
2019-03-18T01:00:29.847Z,1.20
2019-03-18T01:01:29.554Z,1.00
2019-03-18T01:02:29.508Z,0.80
2019-03-18T01:03:29.465Z,0.90
2019-03-18T01:04:29.395Z,0.70
2019-03-18T01:05:29.534Z,0.80
2019-03-18T01:06:29.306Z,1.20
2019-03-18T01:07:29.241Z,1.00
2019-03-18T01:08:29.200Z,0.80
2019-03-18T01:09:29.136Z,0.70
2019-03-18T01:10:29.249Z,0.90
2019-03-18T01:11:29.029Z,0.90
2019-03-18T01:12:28.980Z,1.00
2019-03-18T01:13:28.925Z,1.10
2019-03-18T01:14:28.868Z,0.90
2019-03-18T01:15:29.058Z,0.80
2019-03-18T01:16:28.761Z,0.70
2019-03-18T01:17:28.726Z,0.70
2019-03-18T01:18:28.670Z,0.80
2019-03-18T01:19:28.608Z,0.80
2019-03-18T01:20:28.753Z,0.80
2019-03-18T01:21:28.503Z,1.00
2019-03-18T01:22:28.444Z,1.00
2019-03-18T01:23:28.407Z,1.00
2019-03-18T01:24:28.343Z,0.90
2019-03-18T01:25:28.450Z,1.10
2019-03-18T01:26:28.238Z,0.80
2019-03-18T01:27:28.255Z,0.70
2019-03-18T01:28:28.145Z,0.90
2019-03-18T01:29:28.082Z,1.00
2019-03-18T01:30:28.255Z,0.70
2019-03-18T01:31:27.968Z,1.00
2019-03-18T01:32:27.915Z,0.90
2019-03-18T01:33:27.880Z,0.80
2019-03-18T01:34:27.813Z,0.80
2019-03-18T01:35:27.948Z,0.80
2019-03-18T01:36:27.703Z,0.70
2019-03-18T01:37:27.656Z,0.70
2019-03-18T01:38:27.616Z,0.80
2019-03-18T01:39:27.544Z,0.80
2019-03-18T01:40:27.667Z,0.80
2019-03-18T01:41:27.440Z,0.70
2019-03-18T01:42:27.390Z,0.80
2019-03-18T01:43:27.334Z,0.90
2019-03-18T01:44:27.279Z,0.70
2019-03-18T01:45:39.768Z,0.80
2019-03-18T01:46:27.184Z,0.80
2019-03-18T01:47:27.126Z,0.90
2019-03-18T01:48:27.091Z,0.90
2019-03-18T01:49:27.015Z,0.80
2019-03-18T01:50:27.180Z,0.70
2019-03-18T01:51:26.915Z,0.70
2019-03-18T01:52:26.856Z,1.10
2019-03-18T01:53:26.821Z,0.80
2019-03-18T01:54:26.750Z,0.70
2019-03-18T01:55:26.867Z,0.80
2019-03-18T01:56:26.648Z,0.80
2019-03-18T01:57:26.593Z,0.90
2019-03-18T01:58:26.556Z,0.70
2019-03-18T01:59:26.487Z,0.80
2019-03-18T02:00:26.671Z,0.90
2019-03-18T02:01:26.384Z,0.80
2019-03-18T02:02:26.337Z,0.90
2019-03-18T02:03:26.293Z,0.90
2019-03-18T02:04:26.222Z,0.80
2019-03-18T02:05:26.366Z,0.70
2019-03-18T02:06:26.119Z,1.00
2019-03-18T02:07:26.067Z,0.80
2019-03-18T02:08:26.031Z,0.80
2019-03-18T02:09:25.960Z,0.80
2019-03-18T02:10:26.169Z,0.90
2019-03-18T02:11:25.853Z,0.90
2019-03-18T02:12:25.799Z,0.90
2019-03-18T02:13:25.746Z,0.80
2019-03-18T02:14:25.695Z,0.80
2019-03-18T02:15:25.873Z,0.70
2019-03-18T02:16:25.592Z,0.90
2019-03-18T02:17:25.536Z,0.90
2019-03-18T02:18:25.504Z,1.00
2019-03-18T02:19:25.431Z,0.80
2019-03-18T02:20:25.574Z,0.60
2019-03-18T02:21:25.323Z,0.80
2019-03-18T02:22:25.271Z,0.90
2019-03-18T02:23:25.236Z,0.90
2019-03-18T02:24:25.186Z,0.90
2019-03-18T02:25:25.272Z,0.80
2019-03-18T02:26:25.059Z,1.20
2019-03-18T02:27:25.005Z,1.00
2019-03-18T02:28:24.972Z,1.00
2019-03-18T02:29:24.903Z,1.00
2019-03-18T02:30:25.088Z,1.10
2019-03-18T02:31:24.794Z,1.20
2019-03-18T02:32:24.741Z,1.00
2019-03-18T02:33:24.714Z,1.00
2019-03-18T02:34:24.660Z,1.20
2019-03-18T02:35:24.795Z,1.10
2019-03-18T02:36:24.533Z,1.10
2019-03-18T02:37:24.507Z,1.10
2019-03-18T02:38:24.475Z,1.20
2019-03-18T02:39:24.371Z,1.50
2019-03-18T02:40:24.495Z,1.50
2019-03-18T02:41:24.264Z,1.80
2019-03-18T02:42:24.211Z,1.50
2019-03-18T02:43:24.181Z,1.40
2019-03-18T02:44:24.106Z,1.60
2019-03-18T02:45:24.942Z,1.70
2019-03-18T02:46:24.000Z,2.10
2019-03-18T02:47:23.985Z,2.00
2019-03-18T02:48:24.101Z,2.00
2019-03-18T02:49:23.840Z,2.20
2019-03-18T02:50:23.785Z,1.80
2019-03-18T02:51:23.754Z,2.30
2019-03-18T02:52:23.681Z,2.20
2019-03-18T02:53:23.795Z,2.50
2019-03-18T02:54:23.576Z,2.40
2019-03-18T02:55:23.526Z,1.80
2019-03-18T02:56:23.486Z,1.90
2019-03-18T02:57:23.416Z,1.60
2019-03-18T02:58:23.593Z,1.90
2019-03-18T02:59:23.309Z,1.90
2019-03-18T03:00:23.256Z,1.80
2019-03-18T03:01:23.224Z,1.80
2019-03-18T03:02:23.152Z,1.80
2019-03-18T03:03:23.321Z,1.80
2019-03-18T03:04:23.048Z,1.90
2019-03-18T03:05:22.989Z,2.10
2019-03-18T03:06:22.957Z,2.00
2019-03-18T03:07:22.887Z,2.10
2019-03-18T03:08:23.007Z,2.30
2019-03-18T03:09:22.782Z,2.10
2019-03-18T03:10:22.731Z,2.60
2019-03-18T03:11:22.694Z,2.50
2019-03-18T03:12:22.642Z,2.30
2019-03-18T03:13:22.575Z,2.50
2019-03-18T03:14:22.519Z,2.30
2019-03-18T03:15:22.599Z,2.40
2019-03-18T03:16:26.912Z,2.70
2019-03-18T03:17:22.366Z,2.50
2019-03-18T03:18:22.350Z,3.10
2019-03-18T03:19:22.253Z,2.70
2019-03-18T03:20:22.408Z,3.00
2019-03-18T03:21:22.146Z,3.10
2019-03-18T03:22:22.097Z,2.90
2019-03-18T03:23:22.063Z,2.90
2019-03-18T03:24:21.989Z,2.60
2019-03-18T03:25:24.918Z,3.10
2019-03-18T03:26:21.881Z,3.20
2019-03-18T03:27:21.830Z,2.90
2019-03-18T03:28:21.793Z,3.00
2019-03-18T03:29:21.726Z,3.40
2019-03-18T03:30:21.818Z,3.50
2019-03-18T03:31:21.618Z,3.50
2019-03-18T03:32:21.566Z,3.40
2019-03-18T03:33:21.548Z,3.40
2019-03-18T03:34:21.470Z,3.30
2019-03-18T03:35:21.614Z,3.50
2019-03-18T03:36:21.352Z,3.60
2019-03-18T03:37:21.422Z,3.60
2019-03-18T03:38:21.267Z,3.30
2019-03-18T03:39:21.197Z,3.50
2019-03-18T03:40:21.318Z,3.50
2019-03-18T03:41:21.088Z,3.50
2019-03-18T03:42:21.035Z,3.90
2019-03-18T03:43:20.982Z,3.60
2019-03-18T03:44:21.014Z,3.50
2019-03-18T03:45:21.021Z,4.00
2019-03-18T03:46:20.825Z,3.60
2019-03-18T03:47:20.770Z,4.10
2019-03-18T03:48:20.737Z,4.20
2019-03-18T03:49:20.663Z,3.70
2019-03-18T03:50:20.826Z,3.80
2019-03-18T03:51:20.574Z,4.00
2019-03-18T03:52:20.507Z,4.00
2019-03-18T03:53:20.470Z,3.60
2019-03-18T03:54:20.400Z,4.00
2019-03-18T03:55:20.533Z,4.10
2019-03-18T03:56:20.293Z,4.00
2019-03-18T03:57:20.243Z,3.80
2019-03-18T03:58:20.209Z,3.80
2019-03-18T03:59:20.136Z,3.80
2019-03-18T04:00:20.450Z,3.60
2019-03-18T04:01:20.034Z,3.90
2019-03-18T04:02:20.022Z,3.70
2019-03-18T04:03:19.944Z,3.80
2019-03-18T04:04:19.877Z,3.40
2019-03-18T04:05:20.030Z,3.80
2019-03-18T04:06:19.766Z,3.70
2019-03-18T04:07:19.714Z,3.60
2019-03-18T04:08:19.677Z,3.50
2019-03-18T04:09:19.608Z,3.70
2019-03-18T04:10:19.730Z,4.00
2019-03-18T04:11:19.502Z,3.60
2019-03-18T04:12:19.456Z,3.90
2019-03-18T04:13:19.394Z,3.90
2019-03-18T04:14:19.343Z,3.50
2019-03-18T04:15:19.438Z,3.60
2019-03-18T04:16:19.238Z,3.50
2019-03-18T04:17:19.183Z,3.40
2019-03-18T04:18:19.147Z,3.90
2019-03-18T04:19:19.094Z,3.60
2019-03-18T04:20:19.229Z,3.90
2019-03-18T04:21:18.979Z,3.60
2019-03-18T04:22:18.935Z,3.90
2019-03-18T04:23:18.898Z,3.60
2019-03-18T04:24:18.816Z,3.40
2019-03-18T04:25:18.934Z,3.30
2019-03-18T04:26:18.706Z,3.80
2019-03-18T04:27:18.655Z,3.80
2019-03-18T04:28:18.616Z,3.20
2019-03-18T04:29:18.551Z,3.70
2019-03-18T04:30:18.646Z,3.60
2019-03-18T04:31:18.443Z,3.30
2019-03-18T04:32:18.387Z,3.30
2019-03-18T04:33:18.452Z,3.40
2019-03-18T04:34:18.282Z,3.80
2019-03-18T04:35:18.436Z,3.40
2019-03-18T04:36:18.176Z,3.50
2019-03-18T04:37:18.124Z,3.30
2019-03-18T04:38:18.089Z,3.00
2019-03-18T04:39:18.018Z,3.30
2019-03-18T04:40:18.141Z,3.20
2019-03-18T04:41:17.916Z,3.60
2019-03-18T04:42:17.856Z,3.30
2019-03-18T04:43:17.806Z,3.40
2019-03-18T04:44:17.750Z,3.60
2019-03-18T04:45:17.840Z,3.60
2019-03-18T04:46:17.646Z,3.40
2019-03-18T04:47:17.598Z,3.40
2019-03-18T04:48:17.555Z,3.10
2019-03-18T04:49:17.485Z,3.40
2019-03-18T04:50:17.644Z,3.50
2019-03-18T04:51:17.384Z,3.10
2019-03-18T04:52:17.328Z,3.20
2019-03-18T04:53:17.292Z,3.50
2019-03-18T04:54:17.221Z,3.10
2019-03-18T04:55:17.341Z,3.10
2019-03-18T04:56:17.116Z,3.40
2019-03-18T04:57:17.061Z,3.10
2019-03-18T04:58:17.026Z,3.10
2019-03-18T04:59:16.988Z,3.20
2019-03-18T05:00:17.045Z,3.20
2019-03-18T05:01:16.850Z,3.30
2019-03-18T05:02:17.053Z,3.30
2019-03-18T05:03:16.760Z,3.40
2019-03-18T05:04:16.691Z,3.20
2019-03-18T05:05:16.844Z,3.00
2019-03-18T05:06:16.585Z,3.10
2019-03-18T05:07:16.533Z,3.20
2019-03-18T05:08:16.496Z,3.10
2019-03-18T05:09:16.427Z,2.80
2019-03-18T05:10:16.554Z,2.70
2019-03-18T05:11:16.323Z,2.60
2019-03-18T05:12:16.361Z,3.00
2019-03-18T05:13:16.214Z,3.10
2019-03-18T05:14:16.163Z,3.30
2019-03-18T05:15:16.263Z,3.70
2019-03-18T05:16:16.060Z,3.50
2019-03-18T05:17:26.068Z,3.80
2019-03-18T05:18:15.952Z,4.10
2019-03-18T05:19:15.899Z,4.30
2019-03-18T05:20:16.070Z,4.50
2019-03-18T05:21:15.793Z,4.70
2019-03-18T05:22:15.737Z,4.70
2019-03-18T05:23:15.701Z,4.20
2019-03-18T05:24:15.633Z,3.70
2019-03-18T05:25:15.758Z,4.20
2019-03-18T05:26:15.526Z,3.60
2019-03-18T05:27:15.474Z,4.40
2019-03-18T05:28:15.439Z,3.80
2019-03-18T05:29:15.368Z,3.50
2019-03-18T05:30:15.458Z,3.30
2019-03-18T05:31:15.263Z,3.30
2019-03-18T05:32:15.208Z,3.00
2019-03-18T05:33:15.181Z,2.80
2019-03-18T05:34:15.104Z,2.80
2019-03-18T05:35:15.272Z,2.50
2019-03-18T05:36:14.996Z,2.40
2019-03-18T05:37:14.943Z,2.60
2019-03-18T05:38:14.910Z,2.60
2019-03-18T05:39:14.839Z,2.60
2019-03-18T05:40:14.974Z,2.60
2019-03-18T05:41:14.732Z,2.30
2019-03-18T05:42:14.681Z,2.60
2019-03-18T05:43:14.627Z,2.20
2019-03-18T05:44:14.573Z,2.60
2019-03-18T05:45:14.674Z,2.20
2019-03-18T05:46:14.471Z,2.00
2019-03-18T05:47:14.416Z,2.40
2019-03-18T05:48:14.455Z,2.50
2019-03-18T05:49:14.310Z,2.30
2019-03-18T05:50:14.491Z,2.20
2019-03-18T05:51:14.205Z,2.20
2019-03-18T05:52:14.151Z,2.10
2019-03-18T05:53:14.122Z,2.20
2019-03-18T05:54:14.045Z,2.10
2019-03-18T05:55:14.180Z,2.10
2019-03-18T05:56:13.943Z,1.90
2019-03-18T05:57:13.886Z,2.20
2019-03-18T05:58:13.853Z,2.00
2019-03-18T05:59:13.781Z,1.90
2019-03-18T06:00:13.887Z,2.40
2019-03-18T06:01:13.676Z,2.20
2019-03-18T06:02:13.622Z,2.30
2019-03-18T06:03:13.585Z,2.40
2019-03-18T06:04:13.516Z,2.30
2019-03-18T06:05:13.682Z,2.00
2019-03-18T06:06:13.409Z,2.30
2019-03-18T06:07:13.359Z,2.20
2019-03-18T06:08:13.323Z,2.20
2019-03-18T06:09:13.292Z,2.00
2019-03-18T06:10:13.385Z,2.20
2019-03-18T06:11:13.146Z,2.00
2019-03-18T06:12:13.093Z,2.20
2019-03-18T06:13:13.039Z,2.00
2019-03-18T06:14:12.986Z,1.90
2019-03-18T06:15:12.939Z,1.90
2019-03-18T06:16:12.882Z,2.10
2019-03-18T06:17:12.828Z,2.10
2019-03-18T06:18:12.775Z,2.30
2019-03-18T06:19:12.728Z,2.10
2019-03-18T06:20:12.673Z,2.30
2019-03-18T06:21:12.612Z,2.20
2019-03-18T06:22:12.573Z,2.20
2019-03-18T06:23:12.650Z,1.90
2019-03-18T06:24:12.460Z,2.10
2019-03-18T06:25:12.407Z,2.00
2019-03-18T06:26:12.361Z,2.00
2019-03-18T06:27:12.301Z,2.00
2019-03-18T06:28:12.247Z,2.30
2019-03-18T06:29:12.195Z,2.40
2019-03-18T06:30:12.145Z,2.20
2019-03-18T06:31:12.090Z,2.00
2019-03-18T06:32:12.046Z,1.70
2019-03-18T06:33:11.995Z,2.10
2019-03-18T06:34:11.933Z,2.00
2019-03-18T06:35:11.920Z,1.90
2019-03-18T06:36:12.339Z,2.40
2019-03-18T06:37:11.779Z,2.10
2019-03-18T06:38:11.734Z,2.10
2019-03-18T06:39:11.675Z,2.00
2019-03-18T06:40:11.612Z,1.90
2019-03-18T06:41:11.571Z,2.00
2019-03-18T06:42:11.590Z,2.00
2019-03-18T06:43:11.478Z,1.80
2019-03-18T06:44:11.409Z,1.90
2019-03-18T06:45:11.492Z,1.90
2019-03-18T06:46:11.308Z,1.90
2019-03-18T06:47:11.251Z,2.20
2019-03-18T06:48:11.225Z,2.20
2019-03-18T06:49:11.137Z,2.10
2019-03-18T06:50:11.085Z,1.90
2019-03-18T06:51:11.036Z,2.00
2019-03-18T06:52:10.982Z,2.00
2019-03-18T06:53:10.924Z,2.00
2019-03-18T06:54:10.889Z,2.20
2019-03-18T06:55:10.823Z,2.60
2019-03-18T06:56:10.775Z,2.10
2019-03-18T06:57:10.718Z,2.60
2019-03-18T06:58:10.663Z,2.30
2019-03-18T06:59:10.613Z,1.90
2019-03-18T07:00:10.558Z,2.20
2019-03-18T07:01:10.507Z,2.10
2019-03-18T07:02:10.452Z,2.40
2019-03-18T07:03:10.400Z,2.00
2019-03-18T07:04:10.355Z,2.10
2019-03-18T07:05:10.304Z,2.10
2019-03-18T07:06:10.241Z,2.10
2019-03-18T07:07:10.190Z,2.30
2019-03-18T07:08:10.138Z,2.40
2019-03-18T07:09:10.084Z,2.10
2019-03-18T07:10:10.036Z,2.30
2019-03-18T07:11:09.991Z,2.30
2019-03-18T07:12:09.927Z,2.40
2019-03-18T07:13:09.875Z,2.10
2019-03-18T07:14:09.819Z,2.50
2019-03-18T07:15:09.770Z,2.40
2019-03-18T07:16:09.729Z,2.00
2019-03-18T07:17:09.671Z,2.50
2019-03-18T07:18:17.984Z,2.10
2019-03-18T07:19:09.576Z,2.20
2019-03-18T07:20:09.506Z,2.10
2019-03-18T07:21:09.446Z,2.30
2019-03-18T07:22:09.408Z,1.90
2019-03-18T07:23:09.378Z,1.90
2019-03-18T07:24:09.349Z,2.50
2019-03-18T07:25:09.272Z,2.20
2019-03-18T07:26:09.189Z,2.10
2019-03-18T07:27:09.135Z,2.40
2019-03-18T07:28:09.084Z,2.40
2019-03-18T07:29:09.043Z,2.70
2019-03-18T07:30:08.979Z,2.20
2019-03-18T07:31:08.928Z,2.30
2019-03-18T07:32:08.880Z,2.10
2019-03-18T07:33:08.821Z,2.30
2019-03-18T07:34:08.780Z,2.90
2019-03-18T07:35:08.719Z,2.30
2019-03-18T07:36:08.664Z,2.60
2019-03-18T07:37:08.610Z,2.30
2019-03-18T07:38:08.569Z,2.40
2019-03-18T07:39:08.511Z,2.10
2019-03-18T07:40:11.056Z,2.40
2019-03-18T07:41:08.402Z,2.20
2019-03-18T07:42:08.352Z,2.20
2019-03-18T07:43:08.313Z,2.30
2019-03-18T07:44:08.261Z,2.60
2019-03-18T07:45:08.205Z,2.70
2019-03-18T07:46:08.144Z,2.70
2019-03-18T07:47:08.090Z,2.90
2019-03-18T07:48:08.038Z,2.40
2019-03-18T07:49:07.985Z,2.30
2019-03-18T07:50:07.937Z,2.80
2019-03-18T07:51:07.882Z,2.40
2019-03-18T07:52:07.828Z,2.80
2019-03-18T07:53:07.776Z,2.50
2019-03-18T07:54:07.721Z,2.40
2019-03-18T07:55:07.666Z,2.40
2019-03-18T07:56:07.621Z,2.50
2019-03-18T07:57:07.565Z,2.60
2019-03-18T07:58:07.516Z,2.70
2019-03-18T07:59:07.464Z,2.30
2019-03-18T08:00:07.408Z,2.50
2019-03-18T08:01:07.357Z,2.50
2019-03-18T08:02:07.312Z,2.40
2019-03-18T08:03:07.252Z,2.80
2019-03-18T08:04:07.202Z,2.70
2019-03-18T08:05:07.148Z,2.70
2019-03-18T08:06:07.099Z,2.50
2019-03-18T08:07:07.049Z,2.70
2019-03-18T08:08:07.006Z,2.60
2019-03-18T08:09:06.939Z,2.60
2019-03-18T08:10:06.888Z,2.80
2019-03-18T08:11:06.841Z,2.40
2019-03-18T08:12:06.781Z,2.40
2019-03-18T08:13:06.730Z,2.80
2019-03-18T08:14:06.681Z,2.60
2019-03-18T08:15:06.628Z,2.90
2019-03-18T08:16:06.586Z,2.40
2019-03-18T08:17:06.523Z,2.40
2019-03-18T08:18:06.472Z,2.70
2019-03-18T08:19:06.442Z,2.60
2019-03-18T08:20:06.367Z,2.70
2019-03-18T08:21:06.314Z,2.70
2019-03-18T08:22:06.265Z,2.90
2019-03-18T08:23:06.214Z,2.70
2019-03-18T08:24:06.160Z,2.70
2019-03-18T08:25:06.113Z,2.50
2019-03-18T08:26:06.061Z,2.80
2019-03-18T08:27:06.005Z,2.90
2019-03-18T08:28:05.952Z,2.90
2019-03-18T08:29:05.904Z,2.30
2019-03-18T08:30:05.844Z,2.70
2019-03-18T08:31:05.798Z,2.50
2019-03-18T08:32:05.744Z,2.70
2019-03-18T08:33:05.692Z,2.70
2019-03-18T08:34:05.641Z,2.50
2019-03-18T08:35:05.597Z,2.50
2019-03-18T08:36:05.560Z,2.40
2019-03-18T08:37:05.489Z,2.20
2019-03-18T08:38:05.438Z,2.50
2019-03-18T08:39:05.393Z,2.40
2019-03-18T08:40:05.345Z,2.30
2019-03-18T08:41:05.283Z,2.20
2019-03-18T08:42:05.303Z,2.50
2019-03-18T08:43:05.181Z,2.20
2019-03-18T08:44:05.127Z,2.50
2019-03-18T08:45:05.100Z,2.20
2019-03-18T08:46:05.026Z,2.20
2019-03-18T08:47:04.977Z,2.40
2019-03-18T08:48:04.968Z,2.30
2019-03-18T08:49:04.870Z,2.20
2019-03-18T08:50:04.821Z,2.20
2019-03-18T08:51:04.769Z,2.30
2019-03-18T08:52:04.716Z,2.30
2019-03-18T08:53:04.738Z,2.10
2019-03-18T08:54:04.656Z,2.10
2019-03-18T08:55:04.565Z,2.40
2019-03-18T08:56:04.530Z,2.00
2019-03-18T08:57:04.494Z,2.10
2019-03-18T08:58:04.947Z,1.70
2019-03-18T08:59:04.383Z,2.00
2019-03-18T09:00:04.304Z,1.80
2019-03-18T09:01:04.291Z,2.00
2019-03-18T09:02:04.479Z,2.10
2019-03-18T09:03:04.173Z,1.70
2019-03-18T09:04:04.124Z,1.70
2019-03-18T09:05:04.080Z,2.10
2019-03-18T09:06:04.023Z,1.70
2019-03-18T09:07:03.971Z,1.90
2019-03-18T09:08:03.896Z,1.60
2019-03-18T09:09:03.990Z,1.60
2019-03-18T09:10:03.809Z,2.00
2019-03-18T09:11:03.756Z,2.00
2019-03-18T09:12:03.722Z,1.70
2019-03-18T09:13:03.645Z,1.50
2019-03-18T09:14:04.432Z,1.30
2019-03-18T09:15:03.556Z,1.50
2019-03-18T09:16:03.496Z,1.50
2019-03-18T09:17:03.438Z,1.60
2019-03-18T09:18:03.400Z,1.70
2019-03-18T09:19:08.683Z,1.50
2019-03-18T09:20:03.318Z,1.60
2019-03-18T09:21:03.235Z,1.20
2019-03-18T09:22:03.229Z,1.50
2019-03-18T09:23:03.160Z,1.20
2019-03-18T09:24:03.080Z,1.50
2019-03-18T09:25:03.040Z,1.60
2019-03-18T09:26:02.976Z,1.10
2019-03-18T09:27:02.959Z,1.30
2019-03-18T09:28:02.879Z,1.40
2019-03-18T09:29:02.844Z,1.50
2019-03-18T09:30:02.773Z,1.20
2019-03-18T09:31:02.716Z,1.40
2019-03-18T09:32:02.674Z,1.40
2019-03-18T09:33:02.620Z,1.20
2019-03-18T09:34:02.568Z,1.40
2019-03-18T09:35:02.538Z,1.40
2019-03-18T09:36:02.473Z,1.30
2019-03-18T09:37:02.418Z,1.40
2019-03-18T09:38:02.366Z,1.30
2019-03-18T09:39:02.329Z,1.30
2019-03-18T09:40:02.281Z,1.60
2019-03-18T09:41:02.211Z,1.30
2019-03-18T09:42:02.165Z,1.60
2019-03-18T09:43:02.108Z,1.30
2019-03-18T09:44:02.057Z,1.50
2019-03-18T09:45:02.023Z,1.60
2019-03-18T09:46:01.956Z,1.40
2019-03-18T09:47:01.992Z,1.50
2019-03-18T09:48:01.851Z,1.30
2019-03-18T09:49:01.801Z,1.50
2019-03-18T09:50:01.750Z,1.40
2019-03-18T09:51:01.701Z,1.40
2019-03-18T09:52:01.647Z,1.30
2019-03-18T09:53:01.801Z,1.30
2019-03-18T09:54:01.543Z,1.30
2019-03-18T09:55:01.497Z,1.10
2019-03-18T09:56:01.441Z,1.10
2019-03-18T09:57:01.391Z,1.00
2019-03-18T09:58:01.360Z,1.10
2019-03-18T09:59:01.285Z,1.10
2019-03-18T10:00:01.242Z,1.10
2019-03-18T10:01:01.210Z,1.30
2019-03-18T10:02:01.129Z,1.50
2019-03-18T10:03:01.079Z,1.10
2019-03-18T10:04:01.026Z,1.00
2019-03-18T10:05:00.974Z,0.90
2019-03-18T10:06:00.938Z,1.10
2019-03-18T10:07:00.878Z,1.30
2019-03-18T10:08:00.819Z,1.20
2019-03-18T10:09:00.769Z,1.20
2019-03-18T10:10:00.719Z,1.10
2019-03-18T10:11:00.671Z,1.20
2019-03-18T10:12:00.615Z,1.00
2019-03-18T10:13:00.570Z,0.90
2019-03-18T10:14:00.514Z,0.80
2019-03-18T10:15:00.594Z,1.00
2019-03-18T10:16:00.412Z,0.90
2019-03-18T10:17:08.922Z,1.10
2019-03-18T10:18:00.307Z,1.00
2019-03-18T10:19:00.258Z,1.10
2019-03-18T10:20:00.889Z,1.00
2019-03-18T10:21:00.163Z,1.20
2019-03-18T10:22:00.197Z,1.00
2019-03-18T10:23:02.815Z,1.30
2019-03-18T10:24:00.194Z,0.80
2019-03-18T10:24:59.948Z,1.00
2019-03-18T10:25:59.897Z,1.10
2019-03-18T10:26:59.849Z,1.00
2019-03-18T10:27:59.834Z,1.20
2019-03-18T10:28:59.741Z,0.80
2019-03-18T10:29:59.690Z,0.90
2019-03-18T10:30:59.640Z,1.10
2019-03-18T10:31:59.588Z,0.90
2019-03-18T10:32:59.536Z,1.20
2019-03-18T10:33:59.487Z,1.30
2019-03-18T10:34:59.447Z,1.20
2019-03-18T10:35:59.389Z,0.90
2019-03-18T10:36:59.332Z,1.20
2019-03-18T10:37:59.282Z,0.90
2019-03-18T10:38:59.230Z,1.20
2019-03-18T10:39:59.169Z,1.10
2019-03-18T10:40:59.780Z,1.10
2019-03-18T10:41:59.076Z,1.20
2019-03-18T10:42:59.024Z,1.20
2019-03-18T10:43:58.973Z,1.10
2019-03-18T10:44:58.965Z,1.20
2019-03-18T10:45:58.878Z,1.00
2019-03-18T10:46:58.821Z,1.30
2019-03-18T10:47:58.770Z,1.20
2019-03-18T10:48:58.718Z,1.10
2019-03-18T10:49:58.666Z,1.20
2019-03-18T10:50:58.637Z,1.70
2019-03-18T10:51:58.563Z,1.50
2019-03-18T10:52:58.540Z,1.10
2019-03-18T10:53:58.471Z,1.30
2019-03-18T10:54:58.409Z,1.20
2019-03-18T10:56:07.118Z,1.10
2019-03-18T10:56:58.309Z,1.20
2019-03-18T10:57:58.296Z,1.20
2019-03-18T10:58:58.211Z,1.20
2019-03-18T11:00:00.105Z,1.00
2019-03-18T11:00:58.102Z,1.10
2019-03-18T11:01:58.057Z,1.10
2019-03-18T11:02:58.000Z,1.30
2019-03-18T11:03:57.947Z,1.00
2019-03-18T11:04:57.904Z,1.10
2019-03-18T11:05:57.846Z,1.20
2019-03-18T11:06:57.796Z,1.20
2019-03-18T11:07:57.747Z,1.10
2019-03-18T11:08:57.692Z,1.30
2019-03-18T11:09:57.643Z,1.20
2019-03-18T11:10:57.599Z,1.30
2019-03-18T11:11:57.539Z,1.30
2019-03-18T11:12:57.494Z,1.20
2019-03-18T11:13:57.442Z,1.20
2019-03-18T11:14:57.387Z,1.20
2019-03-18T11:15:57.335Z,1.10
2019-03-18T11:16:57.288Z,1.20
2019-03-18T11:17:57.241Z,1.20
2019-03-18T11:18:57.188Z,1.20
2019-03-18T11:19:58.789Z,1.20
2019-03-18T11:20:57.091Z,1.30
2019-03-18T11:21:57.042Z,1.20
2019-03-18T11:22:56.985Z,1.10
2019-03-18T11:23:56.940Z,1.30
2019-03-18T11:24:56.879Z,1.20
2019-03-18T11:25:56.829Z,1.10
2019-03-18T11:26:56.778Z,1.20
2019-03-18T11:27:56.724Z,1.20
2019-03-18T11:28:56.861Z,1.00
2019-03-18T11:29:56.639Z,1.20
2019-03-18T11:30:56.565Z,1.10
2019-03-18T11:31:56.572Z,1.40
2019-03-18T11:32:56.507Z,1.30
2019-03-18T11:33:56.439Z,1.10
2019-03-18T11:34:56.369Z,1.00
2019-03-18T11:35:56.360Z,1.10
2019-03-18T11:36:56.321Z,1.30
2019-03-18T11:37:56.333Z,1.30
2019-03-18T11:38:56.185Z,1.00
2019-03-18T11:39:56.123Z,1.10
2019-03-18T11:40:56.075Z,1.20
2019-03-18T11:41:56.964Z,1.40
2019-03-18T11:42:56.010Z,1.20
2019-03-18T11:43:55.969Z,1.10
2019-03-18T11:44:56.429Z,1.40
2019-03-18T11:45:55.835Z,1.30
2019-03-18T11:46:55.775Z,1.40
2019-03-18T11:47:55.708Z,1.10
2019-03-18T11:48:55.683Z,1.00
2019-03-18T11:49:55.625Z,1.20
2019-03-18T11:50:55.558Z,1.30
2019-03-18T11:51:55.532Z,1.30
2019-03-18T11:52:55.490Z,1.10
2019-03-18T11:53:55.492Z,1.10
2019-03-18T11:54:56.681Z,1.50
2019-03-18T11:55:55.322Z,1.00
2019-03-18T11:56:55.248Z,1.00
2019-03-18T11:57:55.238Z,1.10
2019-03-18T11:58:55.142Z,1.20
2019-03-18T11:59:55.097Z,0.90
2019-03-18T12:00:55.040Z,1.10
2019-03-18T12:01:54.994Z,1.30
2019-03-18T12:02:54.941Z,1.10
2019-03-18T12:03:54.889Z,1.40
2019-03-18T12:04:57.500Z,1.20
2019-03-18T12:05:54.785Z,1.20
2019-03-18T12:06:54.731Z,1.20
2019-03-18T12:07:54.677Z,1.40
2019-03-18T12:08:54.629Z,1.60
2019-03-18T12:09:54.583Z,1.50
2019-03-18T12:10:54.522Z,1.20
2019-03-18T12:11:54.474Z,1.30
2019-03-18T12:12:54.427Z,0.90
2019-03-18T12:13:54.370Z,1.00
2019-03-18T12:14:54.325Z,1.10
2019-03-18T12:15:54.265Z,1.20
2019-03-18T12:16:54.213Z,1.70
2019-03-18T12:17:54.235Z,1.60
2019-03-18T12:18:54.110Z,0.90
2019-03-18T12:19:54.054Z,1.10
2019-03-18T12:20:54.006Z,1.00
2019-03-18T12:21:53.964Z,1.20
2019-03-18T12:22:53.905Z,1.10
2019-03-18T12:23:53.862Z,1.00
2019-03-18T12:24:53.829Z,1.30
2019-03-18T12:25:53.747Z,1.10
2019-03-18T12:26:53.731Z,1.00
2019-03-18T12:27:53.653Z,1.10
2019-03-18T12:28:53.611Z,1.10
2019-03-18T12:29:54.464Z,1.20
2019-03-18T12:30:53.498Z,1.10
2019-03-18T12:31:53.445Z,1.30
2019-03-18T12:32:53.440Z,1.10
2019-03-18T12:33:53.336Z,1.10
2019-03-18T12:34:53.320Z,1.00
2019-03-18T12:35:53.241Z,1.20
2019-03-18T12:36:53.221Z,1.00
2019-03-18T12:37:53.214Z,1.00
2019-03-18T12:38:53.089Z,1.30
2019-03-18T12:39:53.040Z,1.00
2019-03-18T12:40:53.023Z,1.20
2019-03-18T12:41:52.952Z,1.10
2019-03-18T12:42:54.472Z,1.10
2019-03-18T12:43:52.868Z,0.90
2019-03-18T12:44:53.490Z,0.90
2019-03-18T12:45:52.774Z,1.30
2019-03-18T12:46:52.735Z,1.40
2019-03-18T12:47:52.654Z,1.20
2019-03-18T12:48:52.749Z,1.00
2019-03-18T12:49:52.534Z,1.00
2019-03-18T12:50:56.328Z,1.20
2019-03-18T12:51:52.448Z,1.10
2019-03-18T12:52:52.425Z,1.20
2019-03-18T12:53:52.333Z,1.00
2019-03-18T12:54:52.276Z,1.20
2019-03-18T12:55:53.077Z,1.50
2019-03-18T12:56:52.167Z,1.10
2019-03-18T12:57:52.199Z,1.10
2019-03-18T12:58:52.076Z,1.10
2019-03-18T12:59:52.037Z,1.20
2019-03-18T13:00:51.972Z,1.10
2019-03-18T13:01:51.943Z,1.00
2019-03-18T13:02:51.940Z,1.00
2019-03-18T13:03:51.819Z,0.80
2019-03-18T13:04:51.763Z,0.90
2019-03-18T13:05:51.730Z,0.90
2019-03-18T13:06:51.662Z,1.30
2019-03-18T13:07:51.782Z,0.90
2019-03-18T13:08:51.569Z,1.00
2019-03-18T13:09:51.513Z,0.90
2019-03-18T13:10:51.492Z,1.00
2019-03-18T13:11:51.405Z,0.90
2019-03-18T13:12:51.357Z,1.10
2019-03-18T13:13:51.314Z,1.00
2019-03-18T13:14:51.259Z,1.10
2019-03-18T13:15:51.199Z,0.90
2019-03-18T13:16:51.178Z,0.80
2019-03-18T13:17:51.091Z,1.40